createdAt,value
2019-05-05T00:01:11.703Z,72.75
2019-05-05T00:03:45.663Z,73.06
2019-05-05T00:06:17.224Z,73.09
2019-05-05T00:08:48.589Z,73.40
2019-05-05T00:11:24.515Z,73.26
2019-05-05T00:13:57.559Z,73.80
2019-05-05T00:16:44.506Z,73.72
2019-05-05T00:19:29.020Z,73.89
2019-05-05T00:21:49.130Z,74.06
2019-05-05T00:24:20.464Z,74.22
2019-05-05T00:26:51.826Z,74.40
2019-05-05T00:29:25.350Z,74.42
2019-05-05T00:31:56.937Z,74.45
2019-05-05T00:34:28.221Z,74.68
2019-05-05T00:36:59.446Z,74.86
2019-05-05T00:39:30.883Z,74.91
2019-05-05T00:42:02.165Z,74.56
2019-05-05T00:44:35.227Z,74.61
2019-05-05T00:47:10.255Z,74.49
2019-05-05T00:49:49.446Z,74.58
2019-05-05T00:52:21.030Z,74.50
2019-05-05T00:54:52.372Z,74.54
2019-05-05T00:57:24.277Z,74.49
2019-05-05T00:59:55.657Z,74.53
2019-05-05T01:02:45.001Z,74.55
2019-05-05T01:05:25.306Z,74.58
2019-05-05T01:07:57.001Z,74.40
2019-05-05T01:10:28.213Z,74.54
2019-05-05T01:12:59.488Z,74.58
2019-05-05T01:15:30.775Z,74.68
2019-05-05T01:18:02.342Z,74.63
2019-05-05T01:20:34.448Z,74.19
2019-05-05T01:23:06.771Z,74.34
2019-05-05T01:25:38.188Z,74.45
2019-05-05T01:28:09.925Z,74.67
2019-05-05T01:30:44.517Z,74.84
2019-05-05T01:33:34.400Z,74.86
2019-05-05T01:36:06.419Z,74.68
2019-05-05T01:38:45.184Z,75.05
2019-05-05T01:41:30.482Z,74.79
2019-05-05T01:44:01.816Z,74.77
2019-05-05T01:46:35.148Z,74.79
2019-05-05T01:49:06.288Z,74.59
2019-05-05T01:51:37.517Z,75.04
2019-05-05T01:54:08.831Z,74.81
2019-05-05T01:56:40.263Z,74.68
2019-05-05T01:59:11.850Z,74.80
2019-05-05T02:01:44.580Z,74.93
2019-05-05T02:04:16.157Z,75.04
2019-05-05T02:06:47.496Z,75.01
2019-05-05T02:09:18.990Z,75.49
2019-05-05T02:11:50.349Z,75.29
2019-05-05T02:14:21.675Z,75.61
2019-05-05T02:16:54.858Z,75.33
2019-05-05T02:19:26.201Z,75.25
2019-05-05T02:21:57.560Z,75.42
2019-05-05T02:24:28.811Z,75.27
2019-05-05T02:27:00.851Z,75.09
2019-05-05T02:29:44.674Z,75.02
2019-05-05T02:32:36.190Z,75.40
2019-05-05T02:35:10.408Z,75.62
2019-05-05T02:37:45.466Z,75.39
2019-05-05T02:40:16.327Z,75.81
2019-05-05T02:42:48.864Z,75.59
2019-05-05T02:45:30.722Z,75.51
2019-05-05T02:48:05.515Z,75.50
2019-05-05T02:50:57.517Z,75.68
2019-05-05T02:53:28.451Z,75.69
2019-05-05T02:56:04.311Z,75.82
2019-05-05T02:58:38.933Z,75.89
2019-05-05T03:01:24.978Z,75.96
2019-05-05T03:03:57.638Z,75.99
2019-05-05T03:06:29.551Z,75.92
2019-05-05T03:09:01.410Z,76.04
2019-05-05T03:11:35.929Z,75.95
2019-05-05T03:14:09.538Z,76.00
2019-05-05T03:16:43.486Z,76.16
2019-05-05T03:19:14.659Z,76.14
2019-05-05T03:21:46.394Z,76.15
2019-05-05T03:24:18.979Z,76.09
2019-05-05T03:26:50.537Z,76.08
2019-05-05T03:29:24.357Z,75.93
2019-05-05T03:31:56.555Z,75.86
2019-05-05T03:34:28.395Z,75.76
2019-05-05T03:36:59.980Z,75.76
2019-05-05T03:39:34.030Z,75.28
2019-05-05T03:42:16.865Z,75.52
2019-05-05T03:44:56.494Z,75.77
2019-05-05T03:47:29.461Z,75.69
2019-05-05T03:50:01.618Z,75.55
2019-05-05T03:52:34.598Z,75.60
2019-05-05T03:55:09.147Z,75.74
2019-05-05T03:57:40.787Z,75.98
2019-05-05T04:00:14.288Z,75.78
2019-05-05T04:02:53.863Z,75.82
2019-05-05T04:05:34.006Z,76.02
2019-05-05T04:08:05.603Z,76.19
2019-05-05T04:10:37.003Z,76.10
2019-05-05T04:13:09.265Z,76.00
2019-05-05T04:15:44.095Z,76.21
2019-05-05T04:18:25.422Z,76.28
2019-05-05T04:20:56.736Z,76.24
2019-05-05T04:23:28.038Z,75.71
2019-05-05T04:25:59.375Z,76.17
2019-05-05T04:28:31.371Z,76.08
2019-05-05T04:31:04.202Z,76.46
2019-05-05T04:33:35.510Z,76.84
2019-05-05T04:36:06.861Z,77.17
2019-05-05T04:38:38.192Z,77.31
2019-05-05T04:41:09.421Z,77.23
2019-05-05T04:43:40.660Z,76.94
2019-05-05T04:46:14.015Z,76.81
2019-05-05T04:49:03.572Z,76.92
2019-05-05T04:51:46.652Z,77.25
2019-05-05T04:54:20.203Z,76.70
2019-05-05T04:56:53.846Z,76.68
2019-05-05T04:59:24.681Z,76.68
2019-05-05T05:01:58.499Z,76.58
2019-05-05T05:04:33.542Z,76.17
2019-05-05T05:07:04.835Z,76.28
2019-05-05T05:09:46.522Z,76.11
2019-05-05T05:12:23.732Z,75.87
2019-05-05T05:14:55.100Z,75.41
2019-05-05T05:17:31.187Z,75.14
2019-05-05T05:20:03.753Z,74.88
2019-05-05T05:22:35.729Z,74.72
2019-05-05T05:25:08.553Z,74.33
2019-05-05T05:27:39.923Z,74.17
2019-05-05T05:30:13.760Z,73.94
2019-05-05T05:32:45.301Z,73.41
2019-05-05T05:35:16.842Z,73.56
2019-05-05T05:37:48.336Z,73.38
2019-05-05T05:40:24.378Z,73.37
2019-05-05T05:42:57.133Z,72.82
2019-05-05T05:45:36.478Z,72.22
2019-05-05T05:48:15.304Z,72.05
2019-05-05T05:50:54.118Z,70.96
2019-05-05T05:53:25.525Z,70.99
2019-05-05T05:55:57.491Z,71.27
2019-05-05T05:58:29.061Z,70.97
2019-05-05T06:01:04.137Z,70.34
2019-05-05T06:03:34.249Z,70.08
2019-05-05T06:06:05.761Z,69.99
2019-05-05T06:08:37.614Z,68.71
2019-05-05T06:11:09.105Z,68.80
2019-05-05T06:13:44.089Z,68.07
2019-05-05T06:16:15.366Z,66.99
2019-05-05T06:18:46.823Z,66.16
2019-05-05T06:21:18.574Z,66.26
2019-05-05T06:23:50.248Z,65.38
2019-05-05T06:26:23.888Z,65.09
2019-05-05T06:28:54.784Z,65.54
2019-05-05T06:31:33.983Z,64.88
2019-05-05T06:34:05.524Z,64.47
2019-05-05T06:36:39.827Z,64.86
2019-05-05T06:39:13.649Z,63.00
2019-05-05T06:41:46.809Z,62.33
2019-05-05T06:44:38.180Z,63.04
2019-05-05T06:47:13.367Z,63.69
2019-05-05T06:49:44.572Z,62.19
2019-05-05T06:52:16.132Z,63.19
2019-05-05T06:54:48.022Z,62.63
2019-05-05T06:57:21.388Z,61.07
2019-05-05T06:59:54.393Z,61.29
2019-05-05T07:02:26.091Z,62.41
2019-05-05T07:04:59.079Z,62.52
2019-05-05T07:07:30.349Z,61.34
2019-05-05T07:10:03.633Z,61.82
2019-05-05T07:12:37.302Z,61.92
2019-05-05T07:15:10.275Z,60.69
2019-05-05T07:17:44.587Z,60.46
2019-05-05T07:20:16.458Z,60.28
2019-05-05T07:22:58.738Z,61.00
2019-05-05T07:25:24.212Z,61.55
2019-05-05T07:27:55.810Z,60.44
2019-05-05T07:30:29.036Z,61.66
2019-05-05T07:33:00.546Z,60.64
2019-05-05T07:35:35.151Z,61.37
2019-05-05T07:38:06.680Z,59.71
2019-05-05T07:40:38.647Z,58.40
2019-05-05T07:43:10.352Z,59.24
2019-05-05T07:45:44.440Z,58.11
2019-05-05T07:48:17.938Z,57.51
2019-05-05T07:50:59.794Z,53.52
2019-05-05T07:53:24.521Z,53.22
2019-05-05T07:55:55.979Z,51.62
2019-05-05T07:58:27.339Z,52.92
2019-05-05T08:00:58.836Z,51.05
2019-05-05T08:03:30.322Z,49.91
2019-05-05T08:06:03.912Z,50.35
2019-05-05T08:08:35.050Z,47.57
2019-05-05T08:11:06.384Z,48.90
2019-05-05T08:13:37.751Z,49.82
2019-05-05T08:16:27.252Z,50.37
2019-05-05T08:19:06.057Z,50.38
2019-05-05T08:21:37.744Z,51.54
2019-05-05T08:24:11.050Z,50.63
2019-05-05T08:26:44.284Z,48.23
2019-05-05T08:29:35.365Z,48.04
2019-05-05T08:32:08.340Z,48.08
2019-05-05T08:34:54.361Z,48.27
2019-05-05T08:37:14.636Z,47.98
2019-05-05T08:39:46.309Z,48.47
2019-05-05T08:42:17.952Z,44.43
2019-05-05T08:44:49.337Z,43.64
2019-05-05T08:47:21.103Z,44.42
2019-05-05T08:49:53.747Z,44.26
2019-05-05T08:52:26.729Z,44.14
2019-05-05T08:55:00.773Z,43.87
2019-05-05T08:57:34.175Z,46.00
2019-05-05T09:00:09.267Z,45.40
2019-05-05T09:02:40.786Z,46.54
2019-05-05T09:05:14.467Z,46.25
2019-05-05T09:07:46.355Z,46.87
2019-05-05T09:10:17.983Z,45.25
2019-05-05T09:12:49.664Z,44.90
2019-05-05T09:15:21.725Z,45.35
2019-05-05T09:17:54.516Z,45.50
2019-05-05T09:20:26.309Z,47.50
2019-05-05T09:22:57.878Z,44.34
2019-05-05T09:25:34.180Z,43.93
2019-05-05T09:28:23.888Z,42.31
2019-05-05T09:30:56.047Z,43.53
2019-05-05T09:33:27.471Z,44.22
2019-05-05T09:35:59.736Z,44.87
2019-05-05T09:38:31.586Z,44.73
2019-05-05T09:41:03.808Z,45.05
2019-05-05T10:12:44.569Z,47.00
2019-05-05T10:15:16.142Z,47.62
2019-05-05T10:17:47.411Z,47.92
2019-05-05T10:20:19.131Z,46.93
2019-05-05T10:22:50.475Z,47.73
2019-05-05T10:25:27.535Z,47.86
2019-05-05T10:28:00.487Z,46.13
2019-05-05T10:30:31.956Z,49.17
2019-05-05T10:33:03.879Z,46.61
2019-05-05T10:35:37.710Z,45.54
2019-05-05T10:38:09.199Z,46.10
2019-05-05T10:40:40.630Z,44.88
2019-05-05T10:43:12.311Z,44.79
2019-05-05T10:45:44.218Z,42.22
2019-05-05T10:48:15.882Z,41.36
2019-05-05T10:50:47.566Z,43.78
2019-05-05T10:53:19.441Z,42.63
2019-05-05T10:55:51.422Z,43.19
2019-05-05T10:58:24.387Z,41.39
2019-05-05T11:00:57.982Z,43.63
2019-05-05T11:03:29.540Z,41.21
2019-05-05T11:06:01.407Z,42.00
2019-05-05T11:08:34.772Z,42.78
2019-05-05T11:11:06.742Z,44.32
2019-05-05T11:13:38.462Z,42.68
2019-05-05T11:16:10.210Z,43.45
2019-05-05T11:18:41.832Z,44.73
2019-05-05T11:21:14.446Z,45.87
2019-05-05T11:23:45.971Z,46.59
2019-05-05T11:26:17.619Z,44.08
2019-05-05T11:28:48.975Z,43.59
2019-05-05T11:31:20.410Z,43.00
2019-05-05T11:33:54.171Z,44.10
2019-05-05T11:36:27.722Z,41.88
2019-05-05T11:38:59.281Z,42.41
2019-05-05T11:41:30.821Z,41.39
2019-05-05T11:44:04.072Z,43.13
2019-05-05T11:46:35.522Z,41.90
2019-05-05T11:49:07.054Z,43.87
2019-05-05T11:51:38.547Z,41.52
2019-05-05T11:54:09.988Z,40.67
2019-05-05T11:56:41.867Z,40.11
2019-05-05T11:59:14.417Z,42.16
2019-05-05T12:01:46.032Z,42.34
2019-05-05T12:04:17.853Z,43.79
2019-05-05T12:06:49.286Z,45.57
2019-05-05T12:09:24.585Z,46.68
2019-05-05T12:11:55.933Z,46.75
2019-05-05T12:14:28.978Z,45.02
2019-05-05T12:17:04.565Z,45.31
2019-05-05T12:19:36.364Z,45.64
2019-05-05T12:22:07.740Z,46.14
2019-05-05T12:24:40.760Z,45.49
2019-05-05T12:27:34.078Z,44.78
2019-05-05T12:30:05.176Z,45.79
2019-05-05T12:32:36.708Z,45.34
2019-05-05T12:35:08.187Z,46.07
2019-05-05T12:37:39.728Z,43.97
2019-05-05T12:40:14.305Z,41.94
2019-05-05T12:42:45.879Z,41.73
2019-05-05T12:45:19.119Z,38.68
2019-05-05T12:48:08.522Z,40.27
2019-05-05T12:50:40.287Z,41.91
2019-05-05T12:53:11.853Z,42.47
2019-05-05T12:55:44.586Z,41.64
2019-05-05T12:58:16.417Z,41.49
2019-05-05T13:01:04.800Z,39.65
2019-05-05T13:03:36.516Z,40.95
2019-05-05T13:06:08.179Z,40.36
2019-05-05T13:08:40.785Z,40.59
2019-05-05T13:11:12.233Z,42.35
2019-05-05T13:13:44.073Z,43.21
2019-05-05T13:16:16.613Z,43.42
2019-05-05T13:18:48.490Z,43.99
2019-05-05T13:21:21.626Z,44.17
2019-05-05T13:24:01.709Z,44.12
2019-05-05T13:26:54.117Z,43.64
2019-05-05T13:29:25.702Z,45.61
2019-05-05T13:31:57.186Z,45.05
2019-05-05T13:34:28.618Z,44.98
2019-05-05T13:37:00.139Z,44.68
2019-05-05T13:39:33.914Z,44.51
2019-05-05T13:42:06.200Z,44.89
2019-05-05T13:44:49.349Z,45.00
2019-05-05T13:50:11.667Z,43.37
2019-05-05T13:52:44.208Z,44.29
2019-05-05T13:55:16.086Z,44.38
2019-05-05T13:57:47.462Z,43.03
2019-05-05T14:00:19.881Z,43.72
2019-05-05T14:02:51.505Z,43.87
2019-05-05T14:05:24.041Z,44.44
2019-05-05T14:07:55.520Z,45.68
2019-05-05T14:10:26.964Z,43.62
2019-05-05T14:12:58.506Z,42.97
2019-05-05T14:15:29.981Z,42.80
2019-05-05T14:18:03.664Z,43.04
2019-05-05T14:20:34.656Z,43.00
2019-05-05T14:23:06.383Z,42.94
2019-05-05T14:25:37.873Z,42.48
2019-05-05T14:28:14.178Z,42.68
2019-05-05T14:30:54.271Z,42.50
2019-05-05T14:33:27.596Z,43.27
2019-05-05T14:36:19.102Z,42.55
2019-05-05T14:38:53.925Z,43.27
2019-05-05T14:41:25.348Z,42.51
2019-05-05T14:43:56.801Z,41.61
2019-05-05T14:46:28.284Z,40.79
2019-05-05T14:48:59.710Z,41.00
2019-05-05T14:51:34.026Z,41.37
2019-05-05T14:54:05.377Z,41.92
2019-05-05T14:56:37.802Z,40.89
2019-05-05T14:59:09.188Z,41.23
2019-05-05T15:01:40.508Z,42.32
2019-05-05T15:04:13.490Z,42.41
2019-05-05T15:06:46.507Z,41.40
2019-05-05T15:09:29.104Z,41.95
2019-05-05T15:12:04.707Z,40.75
2019-05-05T15:14:36.181Z,41.52
2019-05-05T15:17:07.702Z,43.28
2019-05-05T15:19:40.237Z,41.52
2019-05-05T15:22:15.069Z,42.76
2019-05-05T15:24:46.086Z,42.07
2019-05-05T15:27:17.729Z,40.38
2019-05-05T15:29:49.407Z,41.84
2019-05-05T15:32:20.855Z,41.08
2019-05-05T15:34:54.366Z,41.89
2019-05-05T15:37:25.387Z,40.93
2019-05-05T15:40:00.099Z,40.52
2019-05-05T15:42:34.627Z,39.84
2019-05-05T15:45:06.921Z,36.83
2019-05-05T15:47:38.346Z,37.00
2019-05-05T15:50:10.616Z,36.38
2019-05-05T15:52:44.016Z,37.50
2019-05-05T15:55:15.730Z,37.29
2019-05-05T15:57:47.302Z,37.08
2019-05-05T16:00:19.545Z,37.56
2019-05-05T16:02:51.096Z,36.07
2019-05-05T16:05:24.309Z,37.96
2019-05-05T16:07:55.950Z,37.18
2019-05-05T16:10:28.576Z,37.99
2019-05-05T16:13:00.049Z,38.89
2019-05-05T16:15:31.215Z,39.04
2019-05-05T16:18:10.341Z,40.04
2019-05-05T16:20:44.490Z,39.30
2019-05-05T16:23:20.977Z,39.27
2019-05-05T16:25:54.206Z,38.09
2019-05-05T16:28:25.885Z,40.00
2019-05-05T16:30:57.297Z,39.66
2019-05-05T16:33:28.590Z,40.16
2019-05-05T16:35:59.961Z,39.11
2019-05-05T16:38:34.281Z,39.30
2019-05-05T16:41:07.324Z,40.27
2019-05-05T16:43:38.731Z,40.82
2019-05-05T16:46:10.076Z,41.81
2019-05-05T16:48:43.786Z,41.09
2019-05-05T16:51:16.271Z,42.95
2019-05-05T16:53:47.930Z,42.96
2019-05-05T16:56:31.118Z,41.83
2019-05-05T16:59:02.453Z,41.87
2019-05-05T17:01:35.751Z,42.99
2019-05-05T17:04:15.006Z,43.63
2019-05-05T17:06:49.662Z,41.43
2019-05-05T17:09:24.129Z,42.44
2019-05-05T17:12:11.211Z,43.15
2019-05-05T17:15:11.085Z,42.99
2019-05-05T17:17:54.541Z,44.02
2019-05-05T17:20:44.692Z,43.26
2019-05-05T17:23:17.973Z,42.54
2019-05-05T17:25:50.903Z,42.73
2019-05-05T17:28:23.857Z,40.71
2019-05-05T17:30:55.418Z,42.11
2019-05-05T17:33:34.050Z,41.03
2019-05-05T17:36:06.860Z,41.28
2019-05-05T17:38:43.597Z,42.77
2019-05-05T17:41:20.305Z,42.74
2019-05-05T17:44:03.597Z,42.09
2019-05-05T17:46:40.947Z,43.56
2019-05-05T17:49:26.912Z,42.95
2019-05-05T17:52:16.578Z,44.29
2019-05-05T17:54:51.191Z,43.31
2019-05-05T17:57:23.643Z,42.66
2019-05-05T17:59:55.113Z,41.92
2019-05-05T18:02:26.576Z,42.34
2019-05-05T18:04:58.108Z,43.30
2019-05-05T18:07:34.592Z,43.91
2019-05-05T18:10:08.142Z,44.31
2019-05-05T18:12:55.115Z,43.77
2019-05-05T18:15:44.009Z,43.15
2019-05-05T18:18:16.072Z,44.31
2019-05-05T18:20:49.920Z,45.22
2019-05-05T18:23:23.457Z,46.47
2019-05-05T18:25:55.859Z,46.18
2019-05-05T18:28:44.778Z,46.40
2019-05-05T18:31:17.426Z,46.52
2019-05-05T18:33:49.410Z,46.48
2019-05-05T18:36:22.861Z,47.43
2019-05-05T18:39:01.899Z,47.32
2019-05-05T18:41:41.137Z,46.93
2019-05-05T18:44:16.378Z,47.40
2019-05-05T18:46:50.133Z,47.18
2019-05-05T18:49:23.243Z,47.72
2019-05-05T18:51:54.356Z,47.94
2019-05-05T18:54:25.704Z,47.72
2019-05-05T18:56:56.956Z,48.62
2019-05-05T18:59:28.229Z,48.91
2019-05-05T19:02:01.310Z,48.62
2019-05-05T19:04:36.943Z,49.46
2019-05-05T19:07:14.452Z,49.83
2019-05-05T19:13:54.107Z,50.31
2019-05-05T19:16:25.632Z,50.55
2019-05-05T19:18:56.952Z,51.25
2019-05-05T19:21:29.940Z,51.67
2019-05-05T19:24:01.274Z,51.94
2019-05-05T19:26:33.736Z,52.61
2019-05-05T19:29:05.293Z,53.96
2019-05-05T19:31:37.562Z,55.50
2019-05-05T19:34:08.939Z,56.01
2019-05-05T19:36:40.188Z,56.56
2019-05-05T19:39:13.694Z,57.02
2019-05-05T19:41:47.087Z,57.87
2019-05-05T19:44:18.578Z,58.12
2019-05-05T19:46:51.573Z,58.41
2019-05-05T19:49:24.164Z,58.50
2019-05-05T19:51:55.867Z,58.44
2019-05-05T19:54:27.283Z,57.37
2019-05-05T19:56:58.656Z,57.35
2019-05-05T19:59:29.976Z,57.18
2019-05-05T20:02:03.572Z,57.03
2019-05-05T20:04:35.212Z,57.62
2019-05-05T20:07:06.589Z,57.40
2019-05-05T20:09:37.952Z,57.42
2019-05-05T20:12:09.329Z,57.79
2019-05-05T20:14:40.650Z,57.24
2019-05-05T20:17:19.602Z,57.59
2019-05-05T20:19:50.861Z,57.26
2019-05-05T20:22:25.639Z,56.89
2019-05-05T20:24:56.975Z,57.49
2019-05-05T20:27:28.492Z,57.15
2019-05-05T20:29:59.841Z,57.12
2019-05-05T20:32:34.145Z,57.75
2019-05-05T20:35:08.150Z,57.75
2019-05-05T20:37:47.143Z,57.62
2019-05-05T20:40:20.335Z,57.68
2019-05-05T20:42:54.111Z,58.06
2019-05-05T20:45:26.363Z,58.12
2019-05-05T20:47:57.686Z,58.55
2019-05-05T20:50:29.265Z,58.85
2019-05-05T20:53:00.919Z,59.60
2019-05-05T20:55:33.898Z,60.07
2019-05-05T20:58:05.521Z,60.75
2019-05-05T21:00:36.891Z,61.57
2019-05-05T21:03:08.190Z,61.72
2019-05-05T21:05:39.559Z,62.30
2019-05-05T21:08:10.954Z,62.90
2019-05-05T21:10:44.163Z,63.09
2019-05-05T21:13:15.266Z,63.40
2019-05-05T21:15:46.568Z,63.40
2019-05-05T21:18:17.939Z,63.49
2019-05-05T21:20:49.238Z,63.42
2019-05-05T21:23:31.225Z,63.44
2019-05-05T21:26:20.052Z,63.38
2019-05-05T21:28:53.679Z,63.42
2019-05-05T21:31:24.585Z,63.46
2019-05-05T21:33:55.885Z,63.33
2019-05-05T21:36:27.494Z,63.53
2019-05-05T21:38:58.748Z,63.55
2019-05-05T21:41:30.034Z,63.36
2019-05-05T21:44:03.635Z,63.53
2019-05-05T21:46:34.753Z,63.18
2019-05-05T21:49:06.581Z,63.27
2019-05-05T21:51:46.281Z,62.82
2019-05-05T21:54:35.338Z,62.66
2019-05-05T21:57:06.477Z,62.54
2019-05-05T21:59:37.862Z,62.66
2019-05-05T22:02:09.667Z,62.37
2019-05-05T22:04:41.057Z,62.38
2019-05-05T22:07:14.469Z,62.91
2019-05-05T22:09:45.367Z,63.05
2019-05-05T22:12:16.668Z,63.26
2019-05-05T22:14:48.032Z,63.49
2019-05-05T22:17:19.333Z,63.55
2019-05-05T22:19:55.086Z,63.40
2019-05-05T22:22:29.101Z,63.54
2019-05-05T22:25:00.356Z,63.87
2019-05-05T22:27:31.631Z,63.95
2019-05-05T22:30:10.081Z,64.14
2019-05-05T22:32:37.261Z,64.36
2019-05-05T22:35:09.137Z,64.67
2019-05-05T22:37:40.577Z,64.76
2019-05-05T22:40:24.429Z,64.80
2019-05-05T22:42:56.083Z,64.59
2019-05-05T22:45:27.590Z,65.05
2019-05-05T22:47:58.837Z,65.27
2019-05-05T22:50:30.335Z,65.38
2019-05-05T22:53:01.750Z,65.39
2019-05-05T22:55:34.517Z,65.42
2019-05-05T22:58:05.999Z,65.59
2019-05-05T23:00:37.405Z,65.72
2019-05-05T23:03:24.509Z,66.12
2019-05-05T23:05:57.700Z,66.35
2019-05-05T23:08:29.043Z,66.31
2019-05-05T23:11:00.288Z,66.38
2019-05-05T23:13:33.616Z,66.32
2019-05-05T23:16:08.868Z,66.61
2019-05-05T23:18:40.449Z,66.42
2019-05-05T23:21:15.950Z,66.59
2019-05-05T23:24:00.599Z,66.44
2019-05-05T23:26:39.235Z,66.38
2019-05-05T23:29:10.603Z,66.63
2019-05-05T23:31:41.929Z,66.61
2019-05-05T23:34:14.745Z,66.45
2019-05-05T23:36:46.242Z,66.21
2019-05-05T23:39:17.582Z,66.40
2019-05-05T23:41:48.999Z,66.44
2019-05-05T23:44:20.360Z,66.28
2019-05-05T23:46:53.578Z,66.58
2019-05-05T23:49:24.587Z,66.19
2019-05-05T23:51:56.206Z,66.33
2019-05-05T23:54:27.864Z,66.36
2019-05-05T23:56:59.175Z,66.16
2019-05-05T23:59:30.554Z,66.20
